メインページ
METAR-TAF:

METAR-TAF

空港 :

バマコ, マリ共和国

バマコ・セヌー国際空港

緯度: 12-32N, 経度: 007-57W, 海抜: 380m

現時点の気象観測

当レポートは18分前の15:30(UTC)に作成
西/南西の風 5kt
気温 41°C
湿度 14%
気圧 1010 hPa
視程10km以上
高度3000ftの雲はほとんどない

METAR: GABS 191530Z 25005KT 9999 FEW030 41/08 Q1010 NOSIG

時間: 15:48 (15:48 UTC)

予報

当レポートは4時間48分前の11:00(UTC)に作成
予報は19日の 12時(UTC)から 20日の 18時(UTC)まで有効
南西の風 10kt
視程10km以上
1,500メートル以下は雲なし、積乱雲なし
19日の 17時(UTC)から 19日の 19時(UTC)まで一時的に
南東の風 6kt
20日の 08時(UTC)から 20日の 10時(UTC)まで徐々に
西の風 10kt

TAF: GABS 191100Z 1912/2018 22010KT CAVOK TEMPO 1917/1919 13006KT BECMG 2008/2010 28010KT

4,000以上の空港の気象観測と天気予報(METAR報とTAF報)

利用可能な観測所は地図上に黄色い丸と赤い丸で示す。

丸の上にカーソルを重ねると観測所名を参照できる。

次にクリックすると気象観測と天気予報を参照できる。

マップの切り替え:黒色「×」印の緑ボタンをクリックして拡大、「-」印の緑ボタンをクリックして縮小、緑色の三角印をクリックして隣りの地図に切り替え


METAR-TAF: